sensor_id;sensor_type;location;lat;lon;timestamp;P1;durP1;ratioP1;P2;durP2;ratioP2
47539;SDS011;33280;52.152;21.052;2023-03-08T00:02:20;6.07;;;2.40;;
47539;SDS011;33280;52.152;21.052;2023-03-08T00:04:47;4.70;;;2.60;;
47539;SDS011;33280;52.152;21.052;2023-03-08T00:07:14;5.13;;;2.90;;
47539;SDS011;33280;52.152;21.052;2023-03-08T00:09:40;4.63;;;2.80;;
47539;SDS011;33280;52.152;21.052;2023-03-08T00:12:07;5.53;;;2.80;;
47539;SDS011;33280;52.152;21.052;2023-03-08T00:14:35;8.83;;;3.50;;
47539;SDS011;33280;52.152;21.052;2023-03-08T00:17:02;7.70;;;4.00;;
47539;SDS011;33280;52.152;21.052;2023-03-08T00:19:30;7.77;;;4.00;;
47539;SDS011;33280;52.152;21.052;2023-03-08T00:21:57;7.23;;;3.80;;
47539;SDS011;33280;52.152;21.052;2023-03-08T00:24:24;8.83;;;4.40;;
47539;SDS011;33280;52.152;21.052;2023-03-08T00:26:51;8.60;;;3.73;;
47539;SDS011;33280;52.152;21.052;2023-03-08T00:29:18;6.27;;;3.83;;
47539;SDS011;33280;52.152;21.052;2023-03-08T00:31:45;6.13;;;3.60;;
47539;SDS011;33280;52.152;21.052;2023-03-08T00:34:14;7.10;;;3.90;;
47539;SDS011;33280;52.152;21.052;2023-03-08T00:36:42;6.70;;;3.83;;
47539;SDS011;33280;52.152;21.052;2023-03-08T00:39:09;6.80;;;4.30;;
47539;SDS011;33280;52.152;21.052;2023-03-08T00:41:37;6.77;;;4.17;;
47539;SDS011;33280;52.152;21.052;2023-03-08T00:44:03;6.20;;;4.00;;
47539;SDS011;33280;52.152;21.052;2023-03-08T00:46:30;6.03;;;4.10;;
47539;SDS011;33280;52.152;21.052;2023-03-08T00:48:57;7.10;;;4.10;;
47539;SDS011;33280;52.152;21.052;2023-03-08T00:51:25;6.90;;;4.23;;
47539;SDS011;33280;52.152;21.052;2023-03-08T00:53:52;7.00;;;3.90;;
47539;SDS011;33280;52.152;21.052;2023-03-08T00:56:19;5.70;;;3.40;;
47539;SDS011;33280;52.152;21.052;2023-03-08T00:58:46;6.10;;;3.33;;
47539;SDS011;33280;52.152;21.052;2023-03-08T01:01:13;7.53;;;4.00;;
47539;SDS011;33280;52.152;21.052;2023-03-08T01:03:42;5.57;;;3.97;;
47539;SDS011;33280;52.152;21.052;2023-03-08T01:06:10;6.63;;;3.67;;
47539;SDS011;33280;52.152;21.052;2023-03-08T01:08:39;6.37;;;3.80;;
47539;SDS011;33280;52.152;21.052;2023-03-08T01:11:13;7.50;;;3.80;;
47539;SDS011;33280;52.152;21.052;2023-03-08T01:13:46;8.27;;;4.17;;
47539;SDS011;33280;52.152;21.052;2023-03-08T01:16:14;8.07;;;4.20;;
47539;SDS011;33280;52.152;21.052;2023-03-08T01:18:56;8.80;;;4.47;;
47539;SDS011;33280;52.152;21.052;2023-03-08T01:21:23;9.10;;;4.77;;
47539;SDS011;33280;52.152;21.052;2023-03-08T01:23:50;8.27;;;4.63;;
47539;SDS011;33280;52.152;21.052;2023-03-08T01:26:19;9.33;;;5.50;;
47539;SDS011;33280;52.152;21.052;2023-03-08T01:28:48;10.07;;;5.00;;
47539;SDS011;33280;52.152;21.052;2023-03-08T01:31:17;8.20;;;4.53;;
47539;SDS011;33280;52.152;21.052;2023-03-08T01:33:45;8.47;;;4.60;;
47539;SDS011;33280;52.152;21.052;2023-03-08T01:36:14;5.43;;;3.53;;
47539;SDS011;33280;52.152;21.052;2023-03-08T01:38:42;5.93;;;3.70;;
47539;SDS011;33280;52.152;21.052;2023-03-08T01:41:14;5.73;;;3.53;;
47539;SDS011;33280;52.152;21.052;2023-03-08T01:43:45;4.87;;;3.20;;
47539;SDS011;33280;52.152;21.052;2023-03-08T01:51:29;7.13;;;3.13;;
47539;SDS011;33280;52.152;21.052;2023-03-08T01:54:07;5.93;;;2.70;;
47539;SDS011;33280;52.152;21.052;2023-03-08T01:56:38;5.50;;;2.80;;
47539;SDS011;33280;52.152;21.052;2023-03-08T01:59:07;4.67;;;2.80;;
47539;SDS011;33280;52.152;21.052;2023-03-08T02:01:34;5.17;;;2.90;;
47539;SDS011;33280;52.152;21.052;2023-03-08T02:04:01;6.07;;;2.90;;
47539;SDS011;33280;52.152;21.052;2023-03-08T02:06:29;6.80;;;2.83;;
47539;SDS011;33280;52.152;21.052;2023-03-08T02:08:56;5.00;;;2.73;;
47539;SDS011;33280;52.152;21.052;2023-03-08T02:11:23;5.70;;;3.20;;
47539;SDS011;33280;52.152;21.052;2023-03-08T02:13:51;6.30;;;3.07;;
47539;SDS011;33280;52.152;21.052;2023-03-08T02:16:19;8.17;;;3.20;;
47539;SDS011;33280;52.152;21.052;2023-03-08T02:18:48;6.90;;;3.20;;
47539;SDS011;33280;52.152;21.052;2023-03-08T02:21:30;5.27;;;2.57;;
47539;SDS011;33280;52.152;21.052;2023-03-08T02:24:20;4.67;;;2.77;;
47539;SDS011;33280;52.152;21.052;2023-03-08T02:26:48;6.63;;;2.80;;
47539;SDS011;33280;52.152;21.052;2023-03-08T02:29:17;7.50;;;2.60;;
47539;SDS011;33280;52.152;21.052;2023-03-08T02:31:44;4.07;;;2.30;;
47539;SDS011;33280;52.152;21.052;2023-03-08T02:34:11;7.47;;;2.60;;
47539;SDS011;33280;52.152;21.052;2023-03-08T02:36:38;5.70;;;2.00;;
47539;SDS011;33280;52.152;21.052;2023-03-08T02:39:05;3.60;;;2.17;;
47539;SDS011;33280;52.152;21.052;2023-03-08T02:41:32;3.93;;;2.20;;
47539;SDS011;33280;52.152;21.052;2023-03-08T02:43:59;5.03;;;2.13;;
47539;SDS011;33280;52.152;21.052;2023-03-08T02:46:25;5.03;;;2.20;;
47539;SDS011;33280;52.152;21.052;2023-03-08T02:48:52;4.23;;;2.30;;
47539;SDS011;33280;52.152;21.052;2023-03-08T02:51:19;3.97;;;2.07;;
47539;SDS011;33280;52.152;21.052;2023-03-08T02:53:46;4.53;;;1.80;;
47539;SDS011;33280;52.152;21.052;2023-03-08T02:56:13;6.17;;;1.87;;
47539;SDS011;33280;52.152;21.052;2023-03-08T02:58:40;4.67;;;2.13;;
47539;SDS011;33280;52.152;21.052;2023-03-08T03:01:10;7.93;;;2.20;;
47539;SDS011;33280;52.152;21.052;2023-03-08T03:03:38;3.63;;;1.90;;
47539;SDS011;33280;52.152;21.052;2023-03-08T03:06:15;2.93;;;1.67;;
47539;SDS011;33280;52.152;21.052;2023-03-08T03:08:44;6.13;;;1.70;;
47539;SDS011;33280;52.152;21.052;2023-03-08T03:11:12;3.43;;;1.70;;
47539;SDS011;33280;52.152;21.052;2023-03-08T03:13:40;6.57;;;1.77;;
47539;SDS011;33280;52.152;21.052;2023-03-08T03:16:08;4.77;;;1.80;;
47539;SDS011;33280;52.152;21.052;2023-03-08T03:18:36;4.00;;;1.70;;
47539;SDS011;33280;52.152;21.052;2023-03-08T03:21:03;4.67;;;1.77;;
47539;SDS011;33280;52.152;21.052;2023-03-08T03:23:34;3.70;;;1.70;;
47539;SDS011;33280;52.152;21.052;2023-03-08T03:26:05;3.93;;;1.90;;
47539;SDS011;33280;52.152;21.052;2023-03-08T03:28:33;5.20;;;2.00;;
47539;SDS011;33280;52.152;21.052;2023-03-08T03:31:00;5.63;;;1.80;;
47539;SDS011;33280;52.152;21.052;2023-03-08T03:33:27;5.07;;;1.70;;
47539;SDS011;33280;52.152;21.052;2023-03-08T03:35:54;3.83;;;2.10;;
47539;SDS011;33280;52.152;21.052;2023-03-08T03:38:22;4.47;;;2.10;;
47539;SDS011;33280;52.152;21.052;2023-03-08T03:40:49;4.27;;;2.10;;
47539;SDS011;33280;52.152;21.052;2023-03-08T03:43:15;5.20;;;2.07;;
47539;SDS011;33280;52.152;21.052;2023-03-08T03:45:42;4.37;;;2.00;;
47539;SDS011;33280;52.152;21.052;2023-03-08T03:48:09;3.17;;;2.17;;
47539;SDS011;33280;52.152;21.052;2023-03-08T03:50:36;4.70;;;2.80;;
47539;SDS011;33280;52.152;21.052;2023-03-08T03:53:03;6.50;;;3.10;;
47539;SDS011;33280;52.152;21.052;2023-03-08T03:55:30;7.30;;;2.90;;
47539;SDS011;33280;52.152;21.052;2023-03-08T03:57:56;8.97;;;3.30;;
47539;SDS011;33280;52.152;21.052;2023-03-08T04:00:23;4.30;;;3.03;;
47539;SDS011;33280;52.152;21.052;2023-03-08T04:02:50;8.03;;;4.13;;
47539;SDS011;33280;52.152;21.052;2023-03-08T04:05:17;6.93;;;3.90;;
47539;SDS011;33280;52.152;21.052;2023-03-08T04:07:44;8.63;;;4.07;;
47539;SDS011;33280;52.152;21.052;2023-03-08T04:10:11;8.87;;;4.70;;
47539;SDS011;33280;52.152;21.052;2023-03-08T04:12:38;9.43;;;4.93;;
47539;SDS011;33280;52.152;21.052;2023-03-08T04:15:05;9.53;;;4.70;;
47539;SDS011;33280;52.152;21.052;2023-03-08T04:17:32;9.87;;;5.00;;
47539;SDS011;33280;52.152;21.052;2023-03-08T04:19:59;10.00;;;5.33;;
47539;SDS011;33280;52.152;21.052;2023-03-08T04:22:26;11.17;;;5.57;;
47539;SDS011;33280;52.152;21.052;2023-03-08T04:24:53;11.20;;;5.60;;
47539;SDS011;33280;52.152;21.052;2023-03-08T04:27:20;10.97;;;6.17;;
47539;SDS011;33280;52.152;21.052;2023-03-08T04:29:46;11.57;;;6.10;;
47539;SDS011;33280;52.152;21.052;2023-03-08T04:32:13;10.37;;;5.83;;
47539;SDS011;33280;52.152;21.052;2023-03-08T04:34:40;10.83;;;6.43;;
47539;SDS011;33280;52.152;21.052;2023-03-08T04:37:09;12.87;;;6.70;;
47539;SDS011;33280;52.152;21.052;2023-03-08T04:39:37;13.10;;;6.30;;
47539;SDS011;33280;52.152;21.052;2023-03-08T04:42:04;12.97;;;6.77;;
47539;SDS011;33280;52.152;21.052;2023-03-08T04:44:31;12.93;;;7.10;;
47539;SDS011;33280;52.152;21.052;2023-03-08T04:46:58;17.83;;;8.10;;
47539;SDS011;33280;52.152;21.052;2023-03-08T04:49:25;16.70;;;7.60;;
47539;SDS011;33280;52.152;21.052;2023-03-08T04:51:52;15.83;;;7.70;;
47539;SDS011;33280;52.152;21.052;2023-03-08T04:54:19;18.53;;;7.43;;
47539;SDS011;33280;52.152;21.052;2023-03-08T04:56:46;16.37;;;7.90;;
47539;SDS011;33280;52.152;21.052;2023-03-08T04:59:13;19.77;;;8.47;;
47539;SDS011;33280;52.152;21.052;2023-03-08T05:01:40;16.03;;;8.47;;
47539;SDS011;33280;52.152;21.052;2023-03-08T05:04:09;16.73;;;8.50;;
47539;SDS011;33280;52.152;21.052;2023-03-08T05:06:36;16.07;;;8.23;;
47539;SDS011;33280;52.152;21.052;2023-03-08T05:09:03;15.00;;;8.27;;
47539;SDS011;33280;52.152;21.052;2023-03-08T05:11:31;17.17;;;8.23;;
47539;SDS011;33280;52.152;21.052;2023-03-08T05:13:58;15.23;;;8.10;;
47539;SDS011;33280;52.152;21.052;2023-03-08T05:16:25;18.80;;;8.27;;
47539;SDS011;33280;52.152;21.052;2023-03-08T05:18:52;18.13;;;8.37;;
47539;SDS011;33280;52.152;21.052;2023-03-08T05:21:20;14.83;;;7.77;;
47539;SDS011;33280;52.152;21.052;2023-03-08T05:23:48;16.73;;;7.97;;
47539;SDS011;33280;52.152;21.052;2023-03-08T05:26:16;15.60;;;8.57;;
47539;SDS011;33280;52.152;21.052;2023-03-08T05:28:43;15.57;;;8.13;;
47539;SDS011;33280;52.152;21.052;2023-03-08T05:31:14;15.10;;;7.97;;
47539;SDS011;33280;52.152;21.052;2023-03-08T05:33:43;15.23;;;8.43;;
47539;SDS011;33280;52.152;21.052;2023-03-08T05:36:12;15.80;;;8.77;;
47539;SDS011;33280;52.152;21.052;2023-03-08T05:38:40;18.90;;;9.20;;
47539;SDS011;33280;52.152;21.052;2023-03-08T05:41:08;15.93;;;8.70;;
47539;SDS011;33280;52.152;21.052;2023-03-08T05:43:37;18.07;;;9.20;;
47539;SDS011;33280;52.152;21.052;2023-03-08T05:46:05;16.77;;;9.20;;
47539;SDS011;33280;52.152;21.052;2023-03-08T05:48:35;16.13;;;9.10;;
47539;SDS011;33280;52.152;21.052;2023-03-08T05:51:06;16.27;;;8.83;;
47539;SDS011;33280;52.152;21.052;2023-03-08T05:53:35;16.63;;;9.40;;
47539;SDS011;33280;52.152;21.052;2023-03-08T05:56:18;14.80;;;8.50;;
47539;SDS011;33280;52.152;21.052;2023-03-08T05:58:46;13.57;;;8.33;;
47539;SDS011;33280;52.152;21.052;2023-03-08T06:01:15;17.93;;;9.17;;
47539;SDS011;33280;52.152;21.052;2023-03-08T06:03:45;14.27;;;8.43;;
47539;SDS011;33280;52.152;21.052;2023-03-08T06:06:13;16.60;;;8.73;;
47539;SDS011;33280;52.152;21.052;2023-03-08T06:08:41;15.23;;;8.67;;
47539;SDS011;33280;52.152;21.052;2023-03-08T06:11:08;16.83;;;8.67;;
47539;SDS011;33280;52.152;21.052;2023-03-08T06:13:35;17.23;;;9.03;;
47539;SDS011;33280;52.152;21.052;2023-03-08T06:16:02;14.43;;;9.00;;
47539;SDS011;33280;52.152;21.052;2023-03-08T06:18:30;15.90;;;8.83;;
47539;SDS011;33280;52.152;21.052;2023-03-08T06:21:02;15.57;;;8.67;;
47539;SDS011;33280;52.152;21.052;2023-03-08T06:23:31;16.60;;;9.30;;
47539;SDS011;33280;52.152;21.052;2023-03-08T06:25:59;14.97;;;8.47;;
47539;SDS011;33280;52.152;21.052;2023-03-08T06:28:27;14.90;;;8.57;;
47539;SDS011;33280;52.152;21.052;2023-03-08T06:30:54;14.90;;;8.67;;
47539;SDS011;33280;52.152;21.052;2023-03-08T06:33:22;14.27;;;8.90;;
47539;SDS011;33280;52.152;21.052;2023-03-08T06:38:26;15.00;;;7.90;;
47539;SDS011;33280;52.152;21.052;2023-03-08T06:40:56;14.93;;;8.13;;
47539;SDS011;33280;52.152;21.052;2023-03-08T06:43:24;14.70;;;7.70;;
47539;SDS011;33280;52.152;21.052;2023-03-08T06:45:51;13.27;;;7.37;;
47539;SDS011;33280;52.152;21.052;2023-03-08T06:48:26;13.57;;;7.83;;
47539;SDS011;33280;52.152;21.052;2023-03-08T06:50:54;11.77;;;7.10;;
47539;SDS011;33280;52.152;21.052;2023-03-08T06:53:21;12.00;;;7.00;;
47539;SDS011;33280;52.152;21.052;2023-03-08T06:55:49;12.33;;;6.83;;
47539;SDS011;33280;52.152;21.052;2023-03-08T06:58:16;13.70;;;6.87;;
47539;SDS011;33280;52.152;21.052;2023-03-08T07:00:55;13.20;;;6.93;;
47539;SDS011;33280;52.152;21.052;2023-03-08T07:03:25;10.20;;;6.70;;
47539;SDS011;33280;52.152;21.052;2023-03-08T07:05:57;13.40;;;6.93;;
47539;SDS011;33280;52.152;21.052;2023-03-08T07:15:29;13.50;;;6.87;;
47539;SDS011;33280;52.152;21.052;2023-03-08T07:17:56;11.70;;;6.50;;
47539;SDS011;33280;52.152;21.052;2023-03-08T07:20:24;14.23;;;8.10;;
47539;SDS011;33280;52.152;21.052;2023-03-08T07:22:52;11.20;;;6.13;;
47539;SDS011;33280;52.152;21.052;2023-03-08T07:25:19;12.23;;;6.53;;
47539;SDS011;33280;52.152;21.052;2023-03-08T07:27:47;10.77;;;5.77;;
47539;SDS011;33280;52.152;21.052;2023-03-08T07:30:14;11.00;;;5.87;;
47539;SDS011;33280;52.152;21.052;2023-03-08T07:32:41;11.07;;;5.93;;
47539;SDS011;33280;52.152;21.052;2023-03-08T07:35:10;12.23;;;6.30;;
47539;SDS011;33280;52.152;21.052;2023-03-08T07:37:39;10.97;;;5.37;;
47539;SDS011;33280;52.152;21.052;2023-03-08T07:40:09;12.10;;;5.80;;
47539;SDS011;33280;52.152;21.052;2023-03-08T07:42:37;12.53;;;5.67;;
47539;SDS011;33280;52.152;21.052;2023-03-08T07:45:04;9.80;;;5.73;;
47539;SDS011;33280;52.152;21.052;2023-03-08T07:47:31;12.27;;;6.13;;
47539;SDS011;33280;52.152;21.052;2023-03-08T07:49:58;10.07;;;5.80;;
47539;SDS011;33280;52.152;21.052;2023-03-08T07:52:26;10.77;;;5.93;;
47539;SDS011;33280;52.152;21.052;2023-03-08T07:54:54;11.60;;;5.17;;
47539;SDS011;33280;52.152;21.052;2023-03-08T07:57:21;10.03;;;5.27;;
47539;SDS011;33280;52.152;21.052;2023-03-08T07:59:49;11.33;;;5.63;;
47539;SDS011;33280;52.152;21.052;2023-03-08T08:02:18;9.70;;;5.60;;
47539;SDS011;33280;52.152;21.052;2023-03-08T08:04:45;10.90;;;5.80;;
47539;SDS011;33280;52.152;21.052;2023-03-08T08:07:13;8.87;;;5.20;;
47539;SDS011;33280;52.152;21.052;2023-03-08T08:09:41;8.30;;;4.77;;
47539;SDS011;33280;52.152;21.052;2023-03-08T08:12:08;10.43;;;5.13;;
47539;SDS011;33280;52.152;21.052;2023-03-08T08:14:35;9.97;;;5.40;;
47539;SDS011;33280;52.152;21.052;2023-03-08T08:17:02;9.73;;;4.63;;
47539;SDS011;33280;52.152;21.052;2023-03-08T08:19:29;9.80;;;5.03;;
47539;SDS011;33280;52.152;21.052;2023-03-08T08:21:57;11.50;;;5.10;;
47539;SDS011;33280;52.152;21.052;2023-03-08T08:24:25;9.47;;;5.33;;
47539;SDS011;33280;52.152;21.052;2023-03-08T08:26:53;10.33;;;5.47;;
47539;SDS011;33280;52.152;21.052;2023-03-08T08:29:20;10.50;;;5.20;;
47539;SDS011;33280;52.152;21.052;2023-03-08T08:31:47;7.17;;;4.60;;
47539;SDS011;33280;52.152;21.052;2023-03-08T08:34:14;9.27;;;4.33;;
47539;SDS011;33280;52.152;21.052;2023-03-08T08:36:41;10.00;;;4.83;;
47539;SDS011;33280;52.152;21.052;2023-03-08T08:39:08;7.97;;;4.60;;
47539;SDS011;33280;52.152;21.052;2023-03-08T08:41:35;8.50;;;4.47;;
47539;SDS011;33280;52.152;21.052;2023-03-08T08:44:02;11.13;;;4.87;;
47539;SDS011;33280;52.152;21.052;2023-03-08T08:46:29;9.60;;;4.80;;
47539;SDS011;33280;52.152;21.052;2023-03-08T08:49:00;11.13;;;4.63;;
47539;SDS011;33280;52.152;21.052;2023-03-08T08:51:31;7.80;;;4.13;;
47539;SDS011;33280;52.152;21.052;2023-03-08T08:54:01;7.13;;;4.37;;
47539;SDS011;33280;52.152;21.052;2023-03-08T08:56:29;9.10;;;4.23;;
47539;SDS011;33280;52.152;21.052;2023-03-08T08:58:56;9.57;;;4.47;;
47539;SDS011;33280;52.152;21.052;2023-03-08T09:01:26;8.10;;;4.20;;
47539;SDS011;33280;52.152;21.052;2023-03-08T09:03:55;7.47;;;4.20;;
47539;SDS011;33280;52.152;21.052;2023-03-08T09:06:22;5.30;;;3.57;;
47539;SDS011;33280;52.152;21.052;2023-03-08T09:08:55;5.20;;;3.47;;
47539;SDS011;33280;52.152;21.052;2023-03-08T09:11:24;6.33;;;3.90;;
47539;SDS011;33280;52.152;21.052;2023-03-08T09:13:52;6.50;;;3.57;;
47539;SDS011;33280;52.152;21.052;2023-03-08T09:16:26;8.37;;;3.47;;
47539;SDS011;33280;52.152;21.052;2023-03-08T09:18:55;7.13;;;3.80;;
47539;SDS011;33280;52.152;21.052;2023-03-08T09:21:24;5.80;;;3.63;;
47539;SDS011;33280;52.152;21.052;2023-03-08T09:23:52;6.23;;;3.90;;
47539;SDS011;33280;52.152;21.052;2023-03-08T09:26:20;6.60;;;3.40;;
47539;SDS011;33280;52.152;21.052;2023-03-08T09:28:47;6.00;;;3.27;;
47539;SDS011;33280;52.152;21.052;2023-03-08T09:31:14;8.33;;;4.23;;
47539;SDS011;33280;52.152;21.052;2023-03-08T09:33:47;8.80;;;4.03;;
47539;SDS011;33280;52.152;21.052;2023-03-08T09:36:17;7.07;;;4.13;;
47539;SDS011;33280;52.152;21.052;2023-03-08T09:38:48;6.40;;;3.60;;
47539;SDS011;33280;52.152;21.052;2023-03-08T09:46:41;5.63;;;3.17;;
47539;SDS011;33280;52.152;21.052;2023-03-08T09:49:20;8.20;;;3.43;;
47539;SDS011;33280;52.152;21.052;2023-03-08T09:54:52;7.33;;;3.30;;
47539;SDS011;33280;52.152;21.052;2023-03-08T09:57:22;7.17;;;3.50;;
47539;SDS011;33280;52.152;21.052;2023-03-08T09:59:53;5.80;;;3.93;;
47539;SDS011;33280;52.152;21.052;2023-03-08T10:05:06;8.93;;;4.00;;
47539;SDS011;33280;52.152;21.052;2023-03-08T10:10:42;7.10;;;3.77;;
47539;SDS011;33280;52.152;21.052;2023-03-08T10:13:35;6.20;;;3.40;;
47539;SDS011;33280;52.152;21.052;2023-03-08T10:16:05;6.47;;;3.23;;
47539;SDS011;33280;52.152;21.052;2023-03-08T10:18:40;6.40;;;3.40;;
47539;SDS011;33280;52.152;21.052;2023-03-08T10:21:24;5.47;;;3.27;;
47539;SDS011;33280;52.152;21.052;2023-03-08T10:24:01;8.87;;;3.90;;
47539;SDS011;33280;52.152;21.052;2023-03-08T10:27:05;6.93;;;3.53;;
47539;SDS011;33280;52.152;21.052;2023-03-08T10:29:47;6.17;;;3.80;;
47539;SDS011;33280;52.152;21.052;2023-03-08T10:32:15;8.87;;;3.53;;
47539;SDS011;33280;52.152;21.052;2023-03-08T10:34:43;8.37;;;3.70;;
47539;SDS011;33280;52.152;21.052;2023-03-08T10:37:10;6.33;;;3.43;;
47539;SDS011;33280;52.152;21.052;2023-03-08T10:39:46;7.07;;;3.80;;
47539;SDS011;33280;52.152;21.052;2023-03-08T10:42:18;7.00;;;3.30;;
47539;SDS011;33280;52.152;21.052;2023-03-08T10:45:00;10.37;;;3.47;;
47539;SDS011;33280;52.152;21.052;2023-03-08T10:47:33;8.47;;;3.63;;
47539;SDS011;33280;52.152;21.052;2023-03-08T10:52:43;6.90;;;3.50;;
47539;SDS011;33280;52.152;21.052;2023-03-08T10:55:13;7.57;;;3.80;;
47539;SDS011;33280;52.152;21.052;2023-03-08T10:57:47;7.87;;;3.80;;
47539;SDS011;33280;52.152;21.052;2023-03-08T11:02:46;9.40;;;3.90;;
47539;SDS011;33280;52.152;21.052;2023-03-08T11:05:21;7.13;;;3.73;;
47539;SDS011;33280;52.152;21.052;2023-03-08T11:07:52;8.77;;;3.60;;
47539;SDS011;33280;52.152;21.052;2023-03-08T11:10:22;7.97;;;3.57;;
47539;SDS011;33280;52.152;21.052;2023-03-08T11:24:17;5.57;;;3.70;;
47539;SDS011;33280;52.152;21.052;2023-03-08T11:32:37;6.23;;;3.87;;
47539;SDS011;33280;52.152;21.052;2023-03-08T11:38:00;10.80;;;4.17;;
47539;SDS011;33280;52.152;21.052;2023-03-08T11:49:32;8.90;;;4.27;;
47539;SDS011;33280;52.152;21.052;2023-03-08T11:57:54;7.70;;;4.00;;
47539;SDS011;33280;52.152;21.052;2023-03-08T12:00:30;6.40;;;3.80;;
47539;SDS011;33280;52.152;21.052;2023-03-08T12:03:10;8.97;;;4.00;;
47539;SDS011;33280;52.152;21.052;2023-03-08T12:05:46;8.33;;;4.27;;
47539;SDS011;33280;52.152;21.052;2023-03-08T12:10:57;8.17;;;3.43;;
47539;SDS011;33280;52.152;21.052;2023-03-08T12:18:53;5.40;;;3.13;;
47539;SDS011;33280;52.152;21.052;2023-03-08T12:21:31;6.33;;;3.47;;
47539;SDS011;33280;52.152;21.052;2023-03-08T12:24:33;4.23;;;2.60;;
47539;SDS011;33280;52.152;21.052;2023-03-08T12:27:23;5.53;;;2.53;;
47539;SDS011;33280;52.152;21.052;2023-03-08T12:33:08;4.00;;;2.70;;
47539;SDS011;33280;52.152;21.052;2023-03-08T12:35:48;4.60;;;2.70;;
47539;SDS011;33280;52.152;21.052;2023-03-08T12:40:45;6.30;;;3.03;;
47539;SDS011;33280;52.152;21.052;2023-03-08T12:45:47;6.47;;;2.53;;
47539;SDS011;33280;52.152;21.052;2023-03-08T12:48:29;4.50;;;2.90;;
47539;SDS011;33280;52.152;21.052;2023-03-08T12:51:05;5.10;;;2.80;;
47539;SDS011;33280;52.152;21.052;2023-03-08T12:58:50;5.80;;;3.10;;
47539;SDS011;33280;52.152;21.052;2023-03-08T13:01:31;4.47;;;2.50;;
47539;SDS011;33280;52.152;21.052;2023-03-08T13:04:05;4.20;;;2.80;;
47539;SDS011;33280;52.152;21.052;2023-03-08T13:09:46;9.03;;;3.07;;
47539;SDS011;33280;52.152;21.052;2023-03-08T13:12:35;5.57;;;2.90;;
47539;SDS011;33280;52.152;21.052;2023-03-08T13:23:17;5.53;;;3.60;;
47539;SDS011;33280;52.152;21.052;2023-03-08T13:28:48;4.90;;;3.17;;
47539;SDS011;33280;52.152;21.052;2023-03-08T13:31:16;6.90;;;3.10;;
47539;SDS011;33280;52.152;21.052;2023-03-08T13:33:51;5.27;;;2.90;;
47539;SDS011;33280;52.152;21.052;2023-03-08T13:38:54;5.03;;;3.37;;
47539;SDS011;33280;52.152;21.052;2023-03-08T13:41:33;6.57;;;3.20;;
47539;SDS011;33280;52.152;21.052;2023-03-08T13:44:06;6.03;;;3.47;;
47539;SDS011;33280;52.152;21.052;2023-03-08T13:46:39;6.03;;;3.47;;
47539;SDS011;33280;52.152;21.052;2023-03-08T13:49:12;8.53;;;3.60;;
47539;SDS011;33280;52.152;21.052;2023-03-08T13:51:47;5.23;;;3.10;;
47539;SDS011;33280;52.152;21.052;2023-03-08T13:54:19;5.70;;;3.30;;
47539;SDS011;33280;52.152;21.052;2023-03-08T13:56:58;7.07;;;3.50;;
47539;SDS011;33280;52.152;21.052;2023-03-08T13:59:28;5.10;;;3.40;;
47539;SDS011;33280;52.152;21.052;2023-03-08T14:01:56;5.90;;;3.63;;
47539;SDS011;33280;52.152;21.052;2023-03-08T14:04:41;6.73;;;3.83;;
47539;SDS011;33280;52.152;21.052;2023-03-08T14:07:16;5.93;;;3.60;;
47539;SDS011;33280;52.152;21.052;2023-03-08T14:09:49;6.63;;;3.57;;
47539;SDS011;33280;52.152;21.052;2023-03-08T14:12:20;5.83;;;3.77;;
47539;SDS011;33280;52.152;21.052;2023-03-08T14:14:52;6.80;;;3.73;;
47539;SDS011;33280;52.152;21.052;2023-03-08T14:17:27;8.07;;;3.67;;
47539;SDS011;33280;52.152;21.052;2023-03-08T14:19:57;6.00;;;3.70;;
47539;SDS011;33280;52.152;21.052;2023-03-08T14:22:27;6.77;;;3.60;;
47539;SDS011;33280;52.152;21.052;2023-03-08T14:25:05;6.77;;;3.63;;
47539;SDS011;33280;52.152;21.052;2023-03-08T14:27:45;8.07;;;3.77;;
47539;SDS011;33280;52.152;21.052;2023-03-08T14:36:08;5.73;;;3.37;;
47539;SDS011;33280;52.152;21.052;2023-03-08T14:38:36;4.57;;;3.33;;
47539;SDS011;33280;52.152;21.052;2023-03-08T14:41:03;6.63;;;3.67;;
47539;SDS011;33280;52.152;21.052;2023-03-08T14:43:35;6.77;;;3.50;;
47539;SDS011;33280;52.152;21.052;2023-03-08T14:46:03;7.07;;;3.83;;
47539;SDS011;33280;52.152;21.052;2023-03-08T14:48:32;6.90;;;3.93;;
47539;SDS011;33280;52.152;21.052;2023-03-08T14:51:05;7.73;;;3.83;;
47539;SDS011;33280;52.152;21.052;2023-03-08T14:53:39;8.70;;;3.80;;
47539;SDS011;33280;52.152;21.052;2023-03-08T14:56:13;6.73;;;3.90;;
47539;SDS011;33280;52.152;21.052;2023-03-08T14:58:50;9.00;;;4.13;;
47539;SDS011;33280;52.152;21.052;2023-03-08T15:01:26;6.73;;;3.47;;
47539;SDS011;33280;52.152;21.052;2023-03-08T15:04:01;9.03;;;4.20;;
47539;SDS011;33280;52.152;21.052;2023-03-08T15:06:33;6.87;;;4.00;;
47539;SDS011;33280;52.152;21.052;2023-03-08T15:09:01;5.70;;;3.90;;
47539;SDS011;33280;52.152;21.052;2023-03-08T15:11:32;8.20;;;4.10;;
47539;SDS011;33280;52.152;21.052;2023-03-08T15:14:00;7.57;;;4.03;;
47539;SDS011;33280;52.152;21.052;2023-03-08T15:16:28;6.90;;;3.77;;
47539;SDS011;33280;52.152;21.052;2023-03-08T15:18:55;6.37;;;4.20;;
47539;SDS011;33280;52.152;21.052;2023-03-08T15:21:24;8.73;;;3.93;;
47539;SDS011;33280;52.152;21.052;2023-03-08T15:23:53;7.63;;;4.00;;
47539;SDS011;33280;52.152;21.052;2023-03-08T15:26:22;8.07;;;4.57;;
47539;SDS011;33280;52.152;21.052;2023-03-08T15:28:53;7.53;;;4.00;;
47539;SDS011;33280;52.152;21.052;2023-03-08T15:31:23;8.93;;;4.10;;
47539;SDS011;33280;52.152;21.052;2023-03-08T15:33:50;9.30;;;4.10;;
47539;SDS011;33280;52.152;21.052;2023-03-08T15:36:18;6.77;;;4.47;;
47539;SDS011;33280;52.152;21.052;2023-03-08T15:38:45;9.03;;;4.17;;
47539;SDS011;33280;52.152;21.052;2023-03-08T15:41:16;8.37;;;4.60;;
47539;SDS011;33280;52.152;21.052;2023-03-08T15:43:43;10.60;;;4.77;;
47539;SDS011;33280;52.152;21.052;2023-03-08T15:46:13;11.10;;;4.73;;
47539;SDS011;33280;52.152;21.052;2023-03-08T15:48:41;8.53;;;4.60;;
47539;SDS011;33280;52.152;21.052;2023-03-08T15:51:17;8.60;;;4.73;;
47539;SDS011;33280;52.152;21.052;2023-03-08T15:53:46;11.03;;;5.03;;
47539;SDS011;33280;52.152;21.052;2023-03-08T15:56:14;8.60;;;5.00;;
47539;SDS011;33280;52.152;21.052;2023-03-08T15:58:42;9.40;;;5.10;;
47539;SDS011;33280;52.152;21.052;2023-03-08T16:01:09;8.00;;;4.87;;
47539;SDS011;33280;52.152;21.052;2023-03-08T16:03:37;9.87;;;4.83;;
47539;SDS011;33280;52.152;21.052;2023-03-08T16:06:16;9.37;;;5.00;;
47539;SDS011;33280;52.152;21.052;2023-03-08T16:08:50;9.97;;;5.30;;
47539;SDS011;33280;52.152;21.052;2023-03-08T16:11:17;10.27;;;5.43;;
47539;SDS011;33280;52.152;21.052;2023-03-08T16:13:51;9.47;;;5.47;;
47539;SDS011;33280;52.152;21.052;2023-03-08T16:16:18;9.63;;;5.37;;
47539;SDS011;33280;52.152;21.052;2023-03-08T16:18:46;8.90;;;5.50;;
47539;SDS011;33280;52.152;21.052;2023-03-08T16:21:14;12.17;;;5.60;;
47539;SDS011;33280;52.152;21.052;2023-03-08T16:23:41;9.53;;;5.27;;
47539;SDS011;33280;52.152;21.052;2023-03-08T16:26:13;9.73;;;5.50;;
47539;SDS011;33280;52.152;21.052;2023-03-08T16:28:43;11.77;;;5.60;;
47539;SDS011;33280;52.152;21.052;2023-03-08T16:31:12;13.53;;;5.47;;
47539;SDS011;33280;52.152;21.052;2023-03-08T16:33:39;13.10;;;5.60;;
47539;SDS011;33280;52.152;21.052;2023-03-08T16:36:06;11.87;;;5.60;;
47539;SDS011;33280;52.152;21.052;2023-03-08T16:38:34;10.90;;;5.30;;
47539;SDS011;33280;52.152;21.052;2023-03-08T16:41:01;7.53;;;5.00;;